sensor_id;sensor_type;location;lat;lon;timestamp;pressure;altitude;pressure_sealevel;temperature;humidity
74268;BME280;62638;51.362;12.472;2023-02-20T00:01:18;100864.28;;;4.85;92.10
74268;BME280;62638;51.362;12.472;2023-02-20T00:03:46;100868.56;;;4.87;92.15
74268;BME280;62638;51.362;12.472;2023-02-20T00:06:11;100867.13;;;4.82;92.30
74268;BME280;62638;51.362;12.472;2023-02-20T00:08:36;100863.41;;;4.70;92.79
74268;BME280;62638;51.362;12.472;2023-02-20T00:11:02;100856.06;;;4.60;93.40
74268;BME280;62638;51.362;12.472;2023-02-20T00:13:27;100847.72;;;4.51;94.32
74268;BME280;62638;51.362;12.472;2023-02-20T00:15:53;100852.16;;;4.51;94.56
74268;BME280;62638;51.362;12.472;2023-02-20T00:18:18;100843.44;;;4.49;94.98
74268;BME280;62638;51.362;12.472;2023-02-20T00:20:43;100837.84;;;4.53;95.39
74268;BME280;62638;51.362;12.472;2023-02-20T00:23:09;100843.16;;;4.53;95.31
74268;BME280;62638;51.362;12.472;2023-02-20T00:25:34;100850.56;;;4.63;95.61
74268;BME280;62638;51.362;12.472;2023-02-20T00:27:59;100845.09;;;4.66;95.75
74268;BME280;62638;51.362;12.472;2023-02-20T00:30:25;100845.84;;;4.68;96.13
74268;BME280;62638;51.362;12.472;2023-02-20T00:32:51;100841.50;;;4.67;96.17
74268;BME280;62638;51.362;12.472;2023-02-20T00:35:18;100844.66;;;4.73;96.78
74268;BME280;62638;51.362;12.472;2023-02-20T00:37:45;100832.41;;;4.71;96.94
74268;BME280;62638;51.362;12.472;2023-02-20T00:40:10;100830.59;;;4.71;96.97
74268;BME280;62638;51.362;12.472;2023-02-20T00:42:36;100820.25;;;4.67;97.54
74268;BME280;62638;51.362;12.472;2023-02-20T00:45:01;100812.22;;;4.68;97.85
74268;BME280;62638;51.362;12.472;2023-02-20T00:47:26;100793.28;;;4.60;97.79
74268;BME280;62638;51.362;12.472;2023-02-20T00:49:51;100798.56;;;4.60;98.55
74268;BME280;62638;51.362;12.472;2023-02-20T00:52:17;100794.13;;;4.61;98.67
74268;BME280;62638;51.362;12.472;2023-02-20T00:54:42;100784.44;;;4.60;99.27
74268;BME280;62638;51.362;12.472;2023-02-20T00:57:07;100790.41;;;4.63;99.38
74268;BME280;62638;51.362;12.472;2023-02-20T00:59:33;100783.41;;;4.62;99.45
74268;BME280;62638;51.362;12.472;2023-02-20T01:01:58;100760.00;;;4.54;99.08
74268;BME280;62638;51.362;12.472;2023-02-20T01:04:23;100779.72;;;4.65;99.19
74268;BME280;62638;51.362;12.472;2023-02-20T01:06:48;100768.72;;;4.71;99.08
74268;BME280;62638;51.362;12.472;2023-02-20T01:09:14;100778.31;;;4.73;98.79
74268;BME280;62638;51.362;12.472;2023-02-20T01:11:43;100779.16;;;4.74;99.00
74268;BME280;62638;51.362;12.472;2023-02-20T01:14:08;100791.28;;;4.78;99.06
74268;BME280;62638;51.362;12.472;2023-02-20T01:16:34;100785.59;;;4.84;98.55
74268;BME280;62638;51.362;12.472;2023-02-20T01:18:59;100789.03;;;4.86;99.29
74268;BME280;62638;51.362;12.472;2023-02-20T01:21:24;100789.69;;;4.89;98.71
74268;BME280;62638;51.362;12.472;2023-02-20T01:23:49;100794.78;;;4.92;98.59
74268;BME280;62638;51.362;12.472;2023-02-20T01:26:15;100782.56;;;4.90;98.93
74268;BME280;62638;51.362;12.472;2023-02-20T01:28:46;100771.69;;;4.94;98.37
74268;BME280;62638;51.362;12.472;2023-02-20T01:31:14;100795.84;;;5.04;98.20
74268;BME280;62638;51.362;12.472;2023-02-20T01:33:42;100804.56;;;5.06;98.41
74268;BME280;62638;51.362;12.472;2023-02-20T01:36:08;100801.03;;;5.06;98.29
74268;BME280;62638;51.362;12.472;2023-02-20T01:38:34;100784.84;;;5.10;98.19
74268;BME280;62638;51.362;12.472;2023-02-20T01:40:59;100795.53;;;5.23;97.99
74268;BME280;62638;51.362;12.472;2023-02-20T01:43:25;100791.44;;;5.31;97.34
74268;BME280;62638;51.362;12.472;2023-02-20T01:45:50;100775.41;;;5.33;97.11
74268;BME280;62638;51.362;12.472;2023-02-20T01:48:20;100795.88;;;5.45;96.58
74268;BME280;62638;51.362;12.472;2023-02-20T01:50:47;100795.38;;;5.53;96.39
74268;BME280;62638;51.362;12.472;2023-02-20T01:53:17;100795.19;;;5.56;96.46
74268;BME280;62638;51.362;12.472;2023-02-20T01:55:51;100781.31;;;5.65;95.87
74268;BME280;62638;51.362;12.472;2023-02-20T01:58:21;100776.97;;;5.64;95.62
74268;BME280;62638;51.362;12.472;2023-02-20T02:00:47;100773.28;;;5.79;95.19
74268;BME280;62638;51.362;12.472;2023-02-20T02:03:18;100765.22;;;5.80;94.94
74268;BME280;62638;51.362;12.472;2023-02-20T02:05:46;100759.69;;;5.83;95.08
74268;BME280;62638;51.362;12.472;2023-02-20T02:08:13;100753.25;;;5.87;94.76
74268;BME280;62638;51.362;12.472;2023-02-20T02:10:50;100750.03;;;5.82;95.02
74268;BME280;62638;51.362;12.472;2023-02-20T02:13:16;100758.47;;;5.89;94.66
74268;BME280;62638;51.362;12.472;2023-02-20T02:15:42;100748.13;;;5.84;95.03
74268;BME280;62638;51.362;12.472;2023-02-20T02:18:28;100746.72;;;5.79;94.95
74268;BME280;62638;51.362;12.472;2023-02-20T02:21:32;100733.03;;;5.85;94.86
74268;BME280;62638;51.362;12.472;2023-02-20T02:32:35;100725.41;;;5.93;95.29
74268;BME280;62638;51.362;12.472;2023-02-20T02:38:16;100715.66;;;5.79;95.94
74268;BME280;62638;51.362;12.472;2023-02-20T02:40:53;100723.25;;;5.85;95.82
74268;BME280;62638;51.362;12.472;2023-02-20T02:46:21;100710.25;;;5.81;96.29
74268;BME280;62638;51.362;12.472;2023-02-20T02:48:54;100710.25;;;5.81;96.31
74268;BME280;62638;51.362;12.472;2023-02-20T02:51:25;100704.84;;;5.82;96.87
74268;BME280;62638;51.362;12.472;2023-02-20T02:54:17;100704.84;;;5.82;96.85
74268;BME280;62638;51.362;12.472;2023-02-20T02:56:46;100702.94;;;5.84;97.12
74268;BME280;62638;51.362;12.472;2023-02-20T02:59:22;100691.66;;;5.81;97.22
74268;BME280;62638;51.362;12.472;2023-02-20T03:01:52;100693.47;;;5.80;97.81
74268;BME280;62638;51.362;12.472;2023-02-20T03:04:19;100701.53;;;5.79;98.00
74268;BME280;62638;51.362;12.472;2023-02-20T03:06:59;100697.84;;;5.81;98.04
74268;BME280;62638;51.362;12.472;2023-02-20T03:09:29;100700.19;;;5.86;98.35
74268;BME280;62638;51.362;12.472;2023-02-20T03:11:58;100699.22;;;5.87;98.30
74268;BME280;62638;51.362;12.472;2023-02-20T03:14:30;100694.69;;;5.89;98.74
74268;BME280;62638;51.362;12.472;2023-02-20T03:17:31;100695.09;;;5.96;98.13
74268;BME280;62638;51.362;12.472;2023-02-20T03:20:02;100680.78;;;5.98;98.16
74268;BME280;62638;51.362;12.472;2023-02-20T03:22:36;100668.34;;;5.99;98.50
74268;BME280;62638;51.362;12.472;2023-02-20T03:25:14;100672.16;;;5.95;98.38
74268;BME280;62638;51.362;12.472;2023-02-20T03:28:02;100668.34;;;5.99;98.80
74268;BME280;62638;51.362;12.472;2023-02-20T03:33:06;100659.06;;;6.04;98.55
74268;BME280;62638;51.362;12.472;2023-02-20T03:35:53;100662.38;;;6.08;98.20
74268;BME280;62638;51.362;12.472;2023-02-20T03:38:40;100658.44;;;6.13;97.50
74268;BME280;62638;51.362;12.472;2023-02-20T03:41:28;100644.50;;;6.22;96.69
74268;BME280;62638;51.362;12.472;2023-02-20T03:44:14;100636.00;;;6.17;96.39
74268;BME280;62638;51.362;12.472;2023-02-20T03:46:43;100637.38;;;6.23;94.86
74268;BME280;62638;51.362;12.472;2023-02-20T03:49:13;100657.16;;;6.31;94.67
74268;BME280;62638;51.362;12.472;2023-02-20T03:51:41;100679.94;;;6.35;93.73
74268;BME280;62638;51.362;12.472;2023-02-20T03:54:23;100678.22;;;6.34;93.44
74268;BME280;62638;51.362;12.472;2023-02-20T03:56:53;100689.09;;;6.44;92.38
74268;BME280;62638;51.362;12.472;2023-02-20T03:59:31;100680.91;;;6.47;90.92
74268;BME280;62638;51.362;12.472;2023-02-20T04:02:01;100706.75;;;6.58;90.01
74268;BME280;62638;51.362;12.472;2023-02-20T04:04:32;100706.19;;;6.65;89.11
74268;BME280;62638;51.362;12.472;2023-02-20T04:07:00;100687.16;;;6.59;88.37
74268;BME280;62638;51.362;12.472;2023-02-20T04:09:31;100713.00;;;6.69;87.37
74268;BME280;62638;51.362;12.472;2023-02-20T04:12:12;100703.44;;;6.67;87.67
74268;BME280;62638;51.362;12.472;2023-02-20T04:14:41;100702.03;;;6.74;86.60
74268;BME280;62638;51.362;12.472;2023-02-20T04:17:10;100693.34;;;6.72;86.35
74268;BME280;62638;51.362;12.472;2023-02-20T04:19:38;100699.06;;;6.78;86.39
74268;BME280;62638;51.362;12.472;2023-02-20T04:22:05;100687.78;;;6.75;85.94
74268;BME280;62638;51.362;12.472;2023-02-20T04:24:41;100687.44;;;6.79;84.87
74268;BME280;62638;51.362;12.472;2023-02-20T04:27:08;100676.56;;;6.82;85.06
74268;BME280;62638;51.362;12.472;2023-02-20T04:29:34;100685.66;;;6.80;84.84
74268;BME280;62638;51.362;12.472;2023-02-20T04:32:00;100678.28;;;6.83;84.59
74268;BME280;62638;51.362;12.472;2023-02-20T04:34:25;100680.63;;;6.88;83.84
74268;BME280;62638;51.362;12.472;2023-02-20T04:37:00;100679.66;;;6.89;84.16
74268;BME280;62638;51.362;12.472;2023-02-20T04:39:28;100675.94;;;6.79;84.45
74268;BME280;62638;51.362;12.472;2023-02-20T04:41:53;100678.28;;;6.83;84.61
74268;BME280;62638;51.362;12.472;2023-02-20T04:44:19;100661.47;;;6.83;85.00
74268;BME280;62638;51.362;12.472;2023-02-20T04:46:57;100668.41;;;6.86;84.72
74268;BME280;62638;51.362;12.472;2023-02-20T04:49:23;100669.44;;;6.83;84.93
74268;BME280;62638;51.362;12.472;2023-02-20T04:51:48;100660.94;;;6.78;85.59
74268;BME280;62638;51.362;12.472;2023-02-20T04:54:13;100667.72;;;6.82;86.18
74268;BME280;62638;51.362;12.472;2023-02-20T04:56:39;100648.81;;;6.74;86.16
74268;BME280;62638;51.362;12.472;2023-02-20T04:59:04;100650.63;;;6.73;86.86
74268;BME280;62638;51.362;12.472;2023-02-20T05:01:30;100647.56;;;6.67;87.73
74268;BME280;62638;51.362;12.472;2023-02-20T05:03:55;100641.69;;;6.62;88.20
74268;BME280;62638;51.362;12.472;2023-02-20T05:06:20;100621.28;;;6.62;88.70
74268;BME280;62638;51.362;12.472;2023-02-20T05:08:46;100613.38;;;6.61;89.11
74268;BME280;62638;51.362;12.472;2023-02-20T05:11:12;100615.31;;;6.59;89.76
74268;BME280;62638;51.362;12.472;2023-02-20T05:13:37;100603.19;;;6.55;89.98
74268;BME280;62638;51.362;12.472;2023-02-20T05:16:03;100611.91;;;6.57;90.56
74268;BME280;62638;51.362;12.472;2023-02-20T05:18:29;100617.75;;;6.62;91.05
74268;BME280;62638;51.362;12.472;2023-02-20T05:20:54;100616.16;;;6.59;91.08
74268;BME280;62638;51.362;12.472;2023-02-20T05:23:38;100594.75;;;6.61;91.00
74268;BME280;62638;51.362;12.472;2023-02-20T05:26:11;100592.09;;;6.61;91.41
74268;BME280;62638;51.362;12.472;2023-02-20T05:28:37;100568.31;;;6.47;91.46
74268;BME280;62638;51.362;12.472;2023-02-20T05:31:06;100586.66;;;6.62;91.10
74268;BME280;62638;51.362;12.472;2023-02-20T05:33:33;100580.72;;;6.59;90.55
74268;BME280;62638;51.362;12.472;2023-02-20T05:35:59;100596.47;;;6.62;90.47
74268;BME280;62638;51.362;12.472;2023-02-20T05:38:24;100604.34;;;6.63;90.43
74268;BME280;62638;51.362;12.472;2023-02-20T05:40:50;100590.19;;;6.63;89.66
74268;BME280;62638;51.362;12.472;2023-02-20T05:43:16;100587.44;;;6.64;88.82
74268;BME280;62638;51.362;12.472;2023-02-20T05:45:41;100596.22;;;6.65;87.93
74268;BME280;62638;51.362;12.472;2023-02-20T05:48:06;100600.59;;;6.66;87.38
74268;BME280;62638;51.362;12.472;2023-02-20T05:50:32;100597.59;;;6.70;86.53
74268;BME280;62638;51.362;12.472;2023-02-20T05:52:57;100585.16;;;6.71;86.40
74268;BME280;62638;51.362;12.472;2023-02-20T05:55:22;100602.31;;;6.67;86.43
74268;BME280;62638;51.362;12.472;2023-02-20T05:57:47;100586.25;;;6.68;85.02
74268;BME280;62638;51.362;12.472;2023-02-20T06:00:13;100582.59;;;6.69;84.83
74268;BME280;62638;51.362;12.472;2023-02-20T06:02:38;100581.13;;;6.65;84.77
74268;BME280;62638;51.362;12.472;2023-02-20T06:05:04;100592.63;;;6.66;83.84
74268;BME280;62638;51.362;12.472;2023-02-20T06:07:33;100583.25;;;6.60;84.27
74268;BME280;62638;51.362;12.472;2023-02-20T06:09:59;100570.06;;;6.59;84.48
74268;BME280;62638;51.362;12.472;2023-02-20T06:12:24;100563.06;;;6.58;84.12
74268;BME280;62638;51.362;12.472;2023-02-20T06:14:49;100556.88;;;6.57;83.75
74268;BME280;62638;51.362;12.472;2023-02-20T06:17:14;100557.81;;;6.56;84.33
74268;BME280;62638;51.362;12.472;2023-02-20T06:19:40;100543.19;;;6.51;84.19
74268;BME280;62638;51.362;12.472;2023-02-20T06:22:05;100557.34;;;6.51;84.04
74268;BME280;62638;51.362;12.472;2023-02-20T06:24:30;100548.06;;;6.44;84.64
74268;BME280;62638;51.362;12.472;2023-02-20T06:26:56;100535.84;;;6.42;83.77
74268;BME280;62638;51.362;12.472;2023-02-20T06:29:21;100545.00;;;6.50;83.46
74268;BME280;62638;51.362;12.472;2023-02-20T06:31:47;100529.66;;;6.54;83.32
74268;BME280;62638;51.362;12.472;2023-02-20T06:34:13;100529.97;;;6.49;82.97
74268;BME280;62638;51.362;12.472;2023-02-20T06:36:40;100529.41;;;6.57;82.16
74268;BME280;62638;51.362;12.472;2023-02-20T06:39:08;100523.22;;;6.56;82.25
74268;BME280;62638;51.362;12.472;2023-02-20T06:41:33;100524.22;;;6.55;81.57
74268;BME280;62638;51.362;12.472;2023-02-20T06:43:58;100516.09;;;6.57;81.12
74268;BME280;62638;51.362;12.472;2023-02-20T06:46:24;100531.75;;;6.61;80.95
74268;BME280;62638;51.362;12.472;2023-02-20T06:48:54;100540.25;;;6.66;80.43
74268;BME280;62638;51.362;12.472;2023-02-20T06:51:24;100536.72;;;6.66;80.05
74268;BME280;62638;51.362;12.472;2023-02-20T06:53:50;100541.16;;;6.78;79.41
74268;BME280;62638;51.362;12.472;2023-02-20T06:56:18;100544.78;;;6.77;79.50
74268;BME280;62638;51.362;12.472;2023-02-20T06:58:49;100543.19;;;6.74;79.37
74268;BME280;62638;51.362;12.472;2023-02-20T07:01:15;100537.00;;;6.74;79.46
74268;BME280;62638;51.362;12.472;2023-02-20T07:03:41;100533.50;;;6.73;79.10
74268;BME280;62638;51.362;12.472;2023-02-20T07:06:07;100522.97;;;6.72;79.14
74268;BME280;62638;51.362;12.472;2023-02-20T07:08:32;100525.31;;;6.76;79.20
74268;BME280;62638;51.362;12.472;2023-02-20T07:10:58;100530.50;;;6.78;78.42
74268;BME280;62638;51.362;12.472;2023-02-20T07:13:23;100529.53;;;6.79;78.81
74268;BME280;62638;51.362;12.472;2023-02-20T07:15:48;100541.16;;;6.78;78.79
74268;BME280;62638;51.362;12.472;2023-02-20T07:18:14;100544.47;;;6.81;78.04
74268;BME280;62638;51.362;12.472;2023-02-20T07:20:41;100528.50;;;6.81;78.38
74268;BME280;62638;51.362;12.472;2023-02-20T07:23:07;100536.56;;;6.80;78.61
74268;BME280;62638;51.362;12.472;2023-02-20T07:25:32;100524.84;;;6.82;77.89
74268;BME280;62638;51.362;12.472;2023-02-20T07:27:57;100512.72;;;6.78;78.56
74268;BME280;62638;51.362;12.472;2023-02-20T07:30:22;100508.88;;;6.82;78.37
74268;BME280;62638;51.362;12.472;2023-02-20T07:32:49;100508.66;;;6.86;78.31
74268;BME280;62638;51.362;12.472;2023-02-20T07:35:14;100503.72;;;6.92;77.99
74268;BME280;62638;51.362;12.472;2023-02-20T07:37:40;100485.94;;;6.93;78.19
74268;BME280;62638;51.362;12.472;2023-02-20T07:40:05;100494.09;;;7.02;78.19
74268;BME280;62638;51.362;12.472;2023-02-20T07:42:31;100498.47;;;7.14;77.41
74268;BME280;62638;51.362;12.472;2023-02-20T07:44:56;100506.00;;;7.20;77.58
74268;BME280;62638;51.362;12.472;2023-02-20T07:47:22;100513.06;;;7.33;76.98
74268;BME280;62638;51.362;12.472;2023-02-20T07:49:47;100496.38;;;7.42;77.08
74268;BME280;62638;51.362;12.472;2023-02-20T07:52:12;100471.91;;;7.37;76.58
74268;BME280;62638;51.362;12.472;2023-02-20T07:54:37;100476.03;;;7.52;75.86
74268;BME280;62638;51.362;12.472;2023-02-20T07:57:03;100469.13;;;7.49;76.02
74268;BME280;62638;51.362;12.472;2023-02-20T07:59:28;100447.91;;;7.48;75.54
74268;BME280;62638;51.362;12.472;2023-02-20T08:01:53;100445.16;;;7.49;75.53
74268;BME280;62638;51.362;12.472;2023-02-20T08:04:18;100444.28;;;7.49;75.66
74268;BME280;62638;51.362;12.472;2023-02-20T08:06:44;100436.31;;;7.49;75.63
74268;BME280;62638;51.362;12.472;2023-02-20T08:09:09;100444.44;;;7.58;75.55
74268;BME280;62638;51.362;12.472;2023-02-20T08:11:35;100444.19;;;7.61;75.49
74268;BME280;62638;51.362;12.472;2023-02-20T08:14:02;100440.31;;;7.54;75.42
74268;BME280;62638;51.362;12.472;2023-02-20T08:16:28;100437.75;;;7.64;75.30
74268;BME280;62638;51.362;12.472;2023-02-20T08:18:53;100460.41;;;7.69;75.14
74268;BME280;62638;51.362;12.472;2023-02-20T08:21:19;100459.09;;;7.75;74.99
74268;BME280;62638;51.362;12.472;2023-02-20T08:23:44;100454.72;;;7.74;74.36
74268;BME280;62638;51.362;12.472;2023-02-20T08:26:09;100437.03;;;7.84;74.24
74268;BME280;62638;51.362;12.472;2023-02-20T08:28:35;100433.41;;;7.85;74.59
74268;BME280;62638;51.362;12.472;2023-02-20T08:31:00;100439.19;;;7.90;74.23
74268;BME280;62638;51.362;12.472;2023-02-20T08:33:25;100445.16;;;7.94;73.69
74268;BME280;62638;51.362;12.472;2023-02-20T08:35:51;100441.50;;;7.95;74.23
74268;BME280;62638;51.362;12.472;2023-02-20T08:38:34;100440.44;;;7.97;73.78
74268;BME280;62638;51.362;12.472;2023-02-20T08:41:04;100454.00;;;8.05;74.10
74268;BME280;62638;51.362;12.472;2023-02-20T08:43:31;100442.59;;;8.03;73.92
74268;BME280;62638;51.362;12.472;2023-02-20T08:45:56;100432.25;;;8.21;74.14
74268;BME280;62638;51.362;12.472;2023-02-20T08:48:21;100429.00;;;8.17;73.66
74268;BME280;62638;51.362;12.472;2023-02-20T08:50:47;100429.47;;;8.23;73.67
74268;BME280;62638;51.362;12.472;2023-02-20T08:53:13;100441.00;;;8.23;73.20
74268;BME280;62638;51.362;12.472;2023-02-20T08:55:39;100437.09;;;8.27;73.19
74268;BME280;62638;51.362;12.472;2023-02-20T08:58:04;100429.72;;;8.31;73.15
74268;BME280;62638;51.362;12.472;2023-02-20T09:00:30;100442.59;;;8.37;72.89
74268;BME280;62638;51.362;12.472;2023-02-20T09:02:55;100446.69;;;8.41;72.75
74268;BME280;62638;51.362;12.472;2023-02-20T09:05:20;100434.53;;;8.48;72.93
74268;BME280;62638;51.362;12.472;2023-02-20T09:07:46;100425.03;;;8.55;72.47
74268;BME280;62638;51.362;12.472;2023-02-20T09:10:11;100424.13;;;8.45;72.16
74268;BME280;62638;51.362;12.472;2023-02-20T09:12:36;100443.22;;;8.61;71.83
74268;BME280;62638;51.362;12.472;2023-02-20T09:15:07;100438.59;;;8.63;71.62
74268;BME280;62638;51.362;12.472;2023-02-20T09:17:32;100441.69;;;8.79;72.29
74268;BME280;62638;51.362;12.472;2023-02-20T09:19:57;100438.03;;;8.80;71.41
74268;BME280;62638;51.362;12.472;2023-02-20T09:22:26;100433.91;;;8.87;71.26
74268;BME280;62638;51.362;12.472;2023-02-20T09:24:53;100432.38;;;8.94;70.92
74268;BME280;62638;51.362;12.472;2023-02-20T09:27:19;100440.09;;;8.88;70.72
74268;BME280;62638;51.362;12.472;2023-02-20T09:29:44;100439.44;;;8.95;70.72
74268;BME280;62638;51.362;12.472;2023-02-20T09:32:10;100433.81;;;8.98;69.60
74268;BME280;62638;51.362;12.472;2023-02-20T09:34:36;100370.16;;;9.03;69.72
74268;BME280;62638;51.362;12.472;2023-02-20T09:37:01;100417.56;;;9.01;70.12
74268;BME280;62638;51.362;12.472;2023-02-20T09:39:27;100437.44;;;9.08;69.82
74268;BME280;62638;51.362;12.472;2023-02-20T09:44:36;100418.63;;;9.20;68.71
74268;BME280;62638;51.362;12.472;2023-02-20T09:47:35;100417.72;;;9.30;69.09
74268;BME280;62638;51.362;12.472;2023-02-20T09:50:12;100416.50;;;9.34;68.27
74268;BME280;62638;51.362;12.472;2023-02-20T09:52:42;100417.69;;;9.51;68.02
74268;BME280;62638;51.362;12.472;2023-02-20T09:55:16;100423.41;;;9.67;67.95
74268;BME280;62638;51.362;12.472;2023-02-20T09:57:47;100409.75;;;9.61;66.85
74268;BME280;62638;51.362;12.472;2023-02-20T10:00:23;100405.13;;;9.72;66.52
74268;BME280;62638;51.362;12.472;2023-02-20T10:03:00;100411.25;;;9.93;66.15
74268;BME280;62638;51.362;12.472;2023-02-20T10:05:30;100387.34;;;9.92;65.11
74268;BME280;62638;51.362;12.472;2023-02-20T10:07:56;100393.88;;;10.18;65.23
74268;BME280;62638;51.362;12.472;2023-02-20T10:18:34;100358.56;;;10.43;63.10
74268;BME280;62638;51.362;12.472;2023-02-20T10:21:19;100361.13;;;10.35;63.96
74268;BME280;62638;51.362;12.472;2023-02-20T10:23:57;100350.53;;;10.34;64.13
74268;BME280;62638;51.362;12.472;2023-02-20T10:26:32;100330.09;;;10.33;62.93
74268;BME280;62638;51.362;12.472;2023-02-20T10:29:21;100327.44;;;10.42;62.70
74268;BME280;62638;51.362;12.472;2023-02-20T10:31:54;100328.53;;;10.50;62.64
74268;BME280;62638;51.362;12.472;2023-02-20T10:36:59;100314.97;;;10.80;62.05
74268;BME280;62638;51.362;12.472;2023-02-20T10:39:26;100303.09;;;10.92;60.63
74268;BME280;62638;51.362;12.472;2023-02-20T10:41:58;100267.72;;;10.88;61.12
74268;BME280;62638;51.362;12.472;2023-02-20T10:44:46;100253.31;;;10.99;60.87
74268;BME280;62638;51.362;12.472;2023-02-20T10:47:32;100284.06;;;10.95;60.23
74268;BME280;62638;51.362;12.472;2023-02-20T10:50:11;100299.91;;;11.25;59.29
74268;BME280;62638;51.362;12.472;2023-02-20T10:55:17;100301.16;;;11.58;57.47
74268;BME280;62638;51.362;12.472;2023-02-20T10:57:50;100308.06;;;11.88;57.39
74268;BME280;62638;51.362;12.472;2023-02-20T11:00:22;100302.19;;;11.85;57.53
74268;BME280;62638;51.362;12.472;2023-02-20T11:03:00;100293.13;;;12.21;56.48
74268;BME280;62638;51.362;12.472;2023-02-20T11:05:31;100296.13;;;12.36;56.14
74268;BME280;62638;51.362;12.472;2023-02-20T11:07:58;100306.25;;;11.89;56.82
74268;BME280;62638;51.362;12.472;2023-02-20T11:10:23;100284.16;;;11.67;57.37
74268;BME280;62638;51.362;12.472;2023-02-20T11:12:50;100278.25;;;11.64;57.05
74268;BME280;62638;51.362;12.472;2023-02-20T11:15:21;100266.06;;;11.97;56.75
74268;BME280;62638;51.362;12.472;2023-02-20T11:17:50;100258.88;;;11.70;57.41
74268;BME280;62638;51.362;12.472;2023-02-20T11:20:40;100230.28;;;11.33;58.23
74268;BME280;62638;51.362;12.472;2023-02-20T11:23:06;100257.44;;;11.48;58.87
74268;BME280;62638;51.362;12.472;2023-02-20T11:25:34;100223.63;;;11.37;57.53
74268;BME280;62638;51.362;12.472;2023-02-20T11:30:41;100236.66;;;11.32;58.41
74268;BME280;62638;51.362;12.472;2023-02-20T11:33:16;100212.38;;;11.34;58.40
74268;BME280;62638;51.362;12.472;2023-02-20T11:35:46;100208.56;;;11.54;58.69
74268;BME280;62638;51.362;12.472;2023-02-20T11:40:39;100209.56;;;11.53;57.89
74268;BME280;62638;51.362;12.472;2023-02-20T11:43:21;100181.56;;;11.83;58.37
74268;BME280;62638;51.362;12.472;2023-02-20T11:45:48;100191.31;;;11.84;57.94
74268;BME280;62638;51.362;12.472;2023-02-20T11:48:19;100177.28;;;11.72;57.51
74268;BME280;62638;51.362;12.472;2023-02-20T11:50:49;100180.72;;;11.82;57.69
74268;BME280;62638;51.362;12.472;2023-02-20T11:53:24;100181.56;;;11.83;57.57
74268;BME280;62638;51.362;12.472;2023-02-20T11:56:16;100173.81;;;11.80;58.08
74268;BME280;62638;51.362;12.472;2023-02-20T11:58:45;100137.25;;;11.79;57.38
74268;BME280;62638;51.362;12.472;2023-02-20T12:01:31;100176.34;;;11.99;57.31
74268;BME280;62638;51.362;12.472;2023-02-20T12:03:58;100165.97;;;11.87;57.29
74268;BME280;62638;51.362;12.472;2023-02-20T12:08:59;100149.19;;;12.02;57.57
74268;BME280;62638;51.362;12.472;2023-02-20T12:11:26;100153.72;;;11.84;58.10
74268;BME280;62638;51.362;12.472;2023-02-20T12:13:53;100144.78;;;11.75;57.62
74268;BME280;62638;51.362;12.472;2023-02-20T12:16:27;100144.22;;;11.72;58.33
74268;BME280;62638;51.362;12.472;2023-02-20T12:24:08;100147.91;;;11.89;58.55
74268;BME280;62638;51.362;12.472;2023-02-20T12:26:45;100160.88;;;11.75;58.43
74268;BME280;62638;51.362;12.472;2023-02-20T12:29:31;100142.50;;;11.71;58.91
74268;BME280;62638;51.362;12.472;2023-02-20T12:32:12;100145.69;;;11.84;59.41
74268;BME280;62638;51.362;12.472;2023-02-20T12:35:03;100155.63;;;11.92;59.16
74268;BME280;62638;51.362;12.472;2023-02-20T12:38:03;100143.06;;;11.92;59.36
74268;BME280;62638;51.362;12.472;2023-02-20T12:40:55;100149.97;;;11.95;59.70
74268;BME280;62638;51.362;12.472;2023-02-20T12:43:40;100147.75;;;12.08;59.82
74268;BME280;62638;51.362;12.472;2023-02-20T12:46:17;100147.41;;;12.11;59.89
74268;BME280;62638;51.362;12.472;2023-02-20T12:48:57;100134.94;;;12.27;59.53
74268;BME280;62638;51.362;12.472;2023-02-20T12:57:21;100129.00;;;12.16;60.20
74268;BME280;62638;51.362;12.472;2023-02-20T13:00:06;100136.16;;;12.33;59.94
74268;BME280;62638;51.362;12.472;2023-02-20T13:02:44;100126.09;;;12.35;60.60
74268;BME280;62638;51.362;12.472;2023-02-20T13:05:13;100127.47;;;12.39;61.34
74268;BME280;62638;51.362;12.472;2023-02-20T13:07:55;100123.94;;;12.39;60.71
74268;BME280;62638;51.362;12.472;2023-02-20T13:10:24;100115.63;;;12.50;61.06
74268;BME280;62638;51.362;12.472;2023-02-20T13:12:51;100116.16;;;12.61;61.02
74268;BME280;62638;51.362;12.472;2023-02-20T13:15:24;100108.06;;;12.53;61.34
74268;BME280;62638;51.362;12.472;2023-02-20T13:20:25;100114.66;;;12.59;61.94
74268;BME280;62638;51.362;12.472;2023-02-20T13:23:04;100110.66;;;12.63;61.52
74268;BME280;62638;51.362;12.472;2023-02-20T13:25:35;100108.44;;;12.58;61.94
74268;BME280;62638;51.362;12.472;2023-02-20T13:28:28;100108.84;;;12.71;62.70
74268;BME280;62638;51.362;12.472;2023-02-20T13:41:55;100105.72;;;12.92;62.37
74268;BME280;62638;51.362;12.472;2023-02-20T13:49:53;100080.56;;;13.01;62.69
74268;BME280;62638;51.362;12.472;2023-02-20T13:52:45;100078.94;;;13.16;61.48
74268;BME280;62638;51.362;12.472;2023-02-20T13:55:23;100076.66;;;12.96;62.12
74268;BME280;62638;51.362;12.472;2023-02-20T13:58:03;100069.31;;;13.06;61.90
74268;BME280;62638;51.362;12.472;2023-02-20T14:00:43;100075.34;;;13.00;62.06
74268;BME280;62638;51.362;12.472;2023-02-20T14:03:18;100064.28;;;13.03;62.52
74268;BME280;62638;51.362;12.472;2023-02-20T14:05:44;100079.72;;;13.09;62.34
74268;BME280;62638;51.362;12.472;2023-02-20T14:08:17;100075.03;;;13.03;62.14
74268;BME280;62638;51.362;12.472;2023-02-20T14:10:42;100091.25;;;12.85;63.04
74268;BME280;62638;51.362;12.472;2023-02-20T14:13:18;100092.09;;;12.86;63.06